sensor_id;sensor_type;location;lat;lon;timestamp;P1;durP1;ratioP1;P2;durP2;ratioP2
15748;SDS011;7976;52.526;13.326;2023-08-06T00:02:14;14.60;;;8.18;;
15748;SDS011;7976;52.526;13.326;2023-08-06T00:04:44;15.85;;;8.00;;
15748;SDS011;7976;52.526;13.326;2023-08-06T00:07:11;15.00;;;7.55;;
15748;SDS011;7976;52.526;13.326;2023-08-06T00:09:39;14.63;;;7.20;;
15748;SDS011;7976;52.526;13.326;2023-08-06T00:12:06;15.52;;;7.40;;
15748;SDS011;7976;52.526;13.326;2023-08-06T00:14:34;13.80;;;8.00;;
15748;SDS011;7976;52.526;13.326;2023-08-06T00:17:03;15.80;;;7.70;;
15748;SDS011;7976;52.526;13.326;2023-08-06T00:19:33;15.88;;;8.18;;
15748;SDS011;7976;52.526;13.326;2023-08-06T00:22:00;14.20;;;7.43;;
15748;SDS011;7976;52.526;13.326;2023-08-06T00:24:27;16.38;;;7.57;;
15748;SDS011;7976;52.526;13.326;2023-08-06T00:26:58;13.48;;;7.18;;
15748;SDS011;7976;52.526;13.326;2023-08-06T00:29:25;15.05;;;8.55;;
15748;SDS011;7976;52.526;13.326;2023-08-06T00:31:53;13.50;;;7.93;;
15748;SDS011;7976;52.526;13.326;2023-08-06T00:34:20;16.17;;;7.70;;
15748;SDS011;7976;52.526;13.326;2023-08-06T00:36:46;13.65;;;6.40;;
15748;SDS011;7976;52.526;13.326;2023-08-06T00:39:13;13.80;;;7.50;;
15748;SDS011;7976;52.526;13.326;2023-08-06T00:41:40;14.93;;;8.05;;
15748;SDS011;7976;52.526;13.326;2023-08-06T00:44:08;13.65;;;7.53;;
15748;SDS011;7976;52.526;13.326;2023-08-06T00:46:35;14.05;;;7.47;;
15748;SDS011;7976;52.526;13.326;2023-08-06T00:49:02;13.80;;;7.60;;
15748;SDS011;7976;52.526;13.326;2023-08-06T00:51:31;12.52;;;6.78;;
15748;SDS011;7976;52.526;13.326;2023-08-06T00:53:58;15.10;;;7.35;;
15748;SDS011;7976;52.526;13.326;2023-08-06T00:56:25;13.75;;;7.47;;
15748;SDS011;7976;52.526;13.326;2023-08-06T00:58:53;13.98;;;7.38;;
15748;SDS011;7976;52.526;13.326;2023-08-06T01:01:22;13.85;;;7.03;;
15748;SDS011;7976;52.526;13.326;2023-08-06T01:03:49;16.05;;;7.25;;
15748;SDS011;7976;52.526;13.326;2023-08-06T01:06:17;14.77;;;7.50;;
15748;SDS011;7976;52.526;13.326;2023-08-06T01:09:01;15.60;;;7.60;;
15748;SDS011;7976;52.526;13.326;2023-08-06T01:11:40;14.55;;;7.90;;
15748;SDS011;7976;52.526;13.326;2023-08-06T01:14:21;13.55;;;7.05;;
15748;SDS011;7976;52.526;13.326;2023-08-06T01:17:11;14.30;;;6.93;;
15748;SDS011;7976;52.526;13.326;2023-08-06T01:19:40;12.68;;;6.30;;
15748;SDS011;7976;52.526;13.326;2023-08-06T01:22:08;12.50;;;6.80;;
15748;SDS011;7976;52.526;13.326;2023-08-06T01:24:35;12.70;;;6.57;;
15748;SDS011;7976;52.526;13.326;2023-08-06T01:27:05;12.55;;;6.25;;
15748;SDS011;7976;52.526;13.326;2023-08-06T01:29:44;15.80;;;7.78;;
15748;SDS011;7976;52.526;13.326;2023-08-06T01:32:16;11.88;;;6.35;;
15748;SDS011;7976;52.526;13.326;2023-08-06T01:34:47;13.10;;;7.07;;
15748;SDS011;7976;52.526;13.326;2023-08-06T01:37:17;11.98;;;6.50;;
15748;SDS011;7976;52.526;13.326;2023-08-06T01:39:44;15.35;;;7.18;;
15748;SDS011;7976;52.526;13.326;2023-08-06T01:42:12;11.93;;;6.35;;
15748;SDS011;7976;52.526;13.326;2023-08-06T01:44:39;13.57;;;6.57;;
15748;SDS011;7976;52.526;13.326;2023-08-06T01:47:06;15.20;;;6.93;;
15748;SDS011;7976;52.526;13.326;2023-08-06T01:49:33;13.05;;;6.68;;
15748;SDS011;7976;52.526;13.326;2023-08-06T01:52:00;13.93;;;7.03;;
15748;SDS011;7976;52.526;13.326;2023-08-06T01:54:32;14.43;;;6.22;;
15748;SDS011;7976;52.526;13.326;2023-08-06T01:56:59;12.07;;;6.25;;
15748;SDS011;7976;52.526;13.326;2023-08-06T01:59:26;11.90;;;6.40;;
15748;SDS011;7976;52.526;13.326;2023-08-06T02:01:53;11.93;;;6.32;;
15748;SDS011;7976;52.526;13.326;2023-08-06T02:04:20;13.20;;;6.07;;
15748;SDS011;7976;52.526;13.326;2023-08-06T02:06:47;12.50;;;6.38;;
15748;SDS011;7976;52.526;13.326;2023-08-06T02:09:14;11.65;;;6.50;;
15748;SDS011;7976;52.526;13.326;2023-08-06T02:11:42;14.65;;;7.07;;
15748;SDS011;7976;52.526;13.326;2023-08-06T02:14:09;12.65;;;7.15;;
15748;SDS011;7976;52.526;13.326;2023-08-06T02:16:38;13.10;;;7.13;;
15748;SDS011;7976;52.526;13.326;2023-08-06T02:19:05;15.65;;;7.35;;
15748;SDS011;7976;52.526;13.326;2023-08-06T02:21:32;12.57;;;6.18;;
15748;SDS011;7976;52.526;13.326;2023-08-06T02:23:58;12.63;;;6.82;;
15748;SDS011;7976;52.526;13.326;2023-08-06T02:26:26;11.73;;;6.13;;
15748;SDS011;7976;52.526;13.326;2023-08-06T02:28:56;12.68;;;6.22;;
15748;SDS011;7976;52.526;13.326;2023-08-06T02:31:23;14.95;;;6.88;;
15748;SDS011;7976;52.526;13.326;2023-08-06T02:33:50;13.02;;;6.50;;
15748;SDS011;7976;52.526;13.326;2023-08-06T02:36:18;13.45;;;6.60;;
15748;SDS011;7976;52.526;13.326;2023-08-06T02:38:45;11.52;;;6.30;;
15748;SDS011;7976;52.526;13.326;2023-08-06T02:41:13;12.77;;;6.82;;
15748;SDS011;7976;52.526;13.326;2023-08-06T02:43:39;13.00;;;6.53;;
15748;SDS011;7976;52.526;13.326;2023-08-06T02:46:08;12.55;;;6.50;;
15748;SDS011;7976;52.526;13.326;2023-08-06T02:48:35;13.77;;;6.78;;
15748;SDS011;7976;52.526;13.326;2023-08-06T02:51:02;15.35;;;7.35;;
15748;SDS011;7976;52.526;13.326;2023-08-06T02:53:31;12.27;;;6.70;;
15748;SDS011;7976;52.526;13.326;2023-08-06T02:55:59;13.43;;;6.57;;
15748;SDS011;7976;52.526;13.326;2023-08-06T02:58:36;13.40;;;6.72;;
15748;SDS011;7976;52.526;13.326;2023-08-06T03:01:14;12.63;;;6.70;;
15748;SDS011;7976;52.526;13.326;2023-08-06T03:03:47;13.57;;;7.18;;
15748;SDS011;7976;52.526;13.326;2023-08-06T03:06:20;14.43;;;6.90;;
15748;SDS011;7976;52.526;13.326;2023-08-06T03:08:51;14.93;;;7.68;;
15748;SDS011;7976;52.526;13.326;2023-08-06T03:11:19;13.23;;;6.88;;
15748;SDS011;7976;52.526;13.326;2023-08-06T03:13:47;14.30;;;7.20;;
15748;SDS011;7976;52.526;13.326;2023-08-06T03:16:16;15.75;;;7.60;;
15748;SDS011;7976;52.526;13.326;2023-08-06T03:18:44;11.63;;;6.38;;
15748;SDS011;7976;52.526;13.326;2023-08-06T03:21:11;12.88;;;6.82;;
15748;SDS011;7976;52.526;13.326;2023-08-06T03:23:38;14.05;;;6.93;;
15748;SDS011;7976;52.526;13.326;2023-08-06T03:26:06;14.70;;;6.97;;
15748;SDS011;7976;52.526;13.326;2023-08-06T03:28:32;13.90;;;7.10;;
15748;SDS011;7976;52.526;13.326;2023-08-06T03:31:00;13.00;;;7.07;;
15748;SDS011;7976;52.526;13.326;2023-08-06T03:33:35;14.32;;;7.22;;
15748;SDS011;7976;52.526;13.326;2023-08-06T03:36:06;13.77;;;6.68;;
15748;SDS011;7976;52.526;13.326;2023-08-06T03:38:34;15.40;;;7.18;;
15748;SDS011;7976;52.526;13.326;2023-08-06T03:41:04;15.60;;;7.30;;
15748;SDS011;7976;52.526;13.326;2023-08-06T03:43:31;13.23;;;6.95;;
15748;SDS011;7976;52.526;13.326;2023-08-06T03:45:59;15.50;;;7.43;;
15748;SDS011;7976;52.526;13.326;2023-08-06T03:48:26;13.73;;;7.22;;
15748;SDS011;7976;52.526;13.326;2023-08-06T03:50:54;14.90;;;7.28;;
15748;SDS011;7976;52.526;13.326;2023-08-06T03:53:23;13.60;;;7.38;;
15748;SDS011;7976;52.526;13.326;2023-08-06T03:55:50;12.48;;;6.63;;
15748;SDS011;7976;52.526;13.326;2023-08-06T03:58:16;14.27;;;7.32;;
15748;SDS011;7976;52.526;13.326;2023-08-06T04:00:43;12.02;;;6.68;;
15748;SDS011;7976;52.526;13.326;2023-08-06T04:03:10;14.23;;;6.82;;
15748;SDS011;7976;52.526;13.326;2023-08-06T04:05:37;12.32;;;6.63;;
15748;SDS011;7976;52.526;13.326;2023-08-06T04:08:05;14.05;;;6.75;;
15748;SDS011;7976;52.526;13.326;2023-08-06T04:10:32;12.40;;;6.40;;
15748;SDS011;7976;52.526;13.326;2023-08-06T04:12:59;12.50;;;5.85;;
15748;SDS011;7976;52.526;13.326;2023-08-06T04:15:29;12.55;;;5.72;;
15748;SDS011;7976;52.526;13.326;2023-08-06T04:17:56;10.95;;;5.72;;
15748;SDS011;7976;52.526;13.326;2023-08-06T04:20:23;11.93;;;6.18;;
15748;SDS011;7976;52.526;13.326;2023-08-06T04:22:50;13.30;;;5.50;;
15748;SDS011;7976;52.526;13.326;2023-08-06T04:25:21;15.25;;;6.15;;
15748;SDS011;7976;52.526;13.326;2023-08-06T04:27:49;10.57;;;5.03;;
15748;SDS011;7976;52.526;13.326;2023-08-06T04:30:16;11.00;;;5.18;;
15748;SDS011;7976;52.526;13.326;2023-08-06T04:32:43;11.57;;;5.50;;
15748;SDS011;7976;52.526;13.326;2023-08-06T04:35:10;12.48;;;5.32;;
15748;SDS011;7976;52.526;13.326;2023-08-06T04:37:37;10.68;;;4.95;;
15748;SDS011;7976;52.526;13.326;2023-08-06T04:40:04;11.90;;;5.70;;
15748;SDS011;7976;52.526;13.326;2023-08-06T04:42:33;13.30;;;5.60;;
15748;SDS011;7976;52.526;13.326;2023-08-06T04:45:00;11.57;;;4.97;;
15748;SDS011;7976;52.526;13.326;2023-08-06T04:47:28;12.55;;;5.60;;
15748;SDS011;7976;52.526;13.326;2023-08-06T04:49:55;11.25;;;5.40;;
15748;SDS011;7976;52.526;13.326;2023-08-06T04:52:22;12.10;;;5.32;;
15748;SDS011;7976;52.526;13.326;2023-08-06T04:54:52;11.50;;;5.10;;
15748;SDS011;7976;52.526;13.326;2023-08-06T04:57:19;12.65;;;5.70;;
15748;SDS011;7976;52.526;13.326;2023-08-06T04:59:48;10.82;;;5.28;;
15748;SDS011;7976;52.526;13.326;2023-08-06T05:02:15;11.02;;;4.82;;
15748;SDS011;7976;52.526;13.326;2023-08-06T05:04:42;12.75;;;5.47;;
15748;SDS011;7976;52.526;13.326;2023-08-06T05:07:10;11.38;;;5.35;;
15748;SDS011;7976;52.526;13.326;2023-08-06T05:09:37;10.82;;;5.13;;
15748;SDS011;7976;52.526;13.326;2023-08-06T05:12:04;10.07;;;5.05;;
15748;SDS011;7976;52.526;13.326;2023-08-06T05:14:32;10.23;;;4.80;;
15748;SDS011;7976;52.526;13.326;2023-08-06T05:17:00;12.10;;;5.28;;
15748;SDS011;7976;52.526;13.326;2023-08-06T05:19:29;11.18;;;5.50;;
15748;SDS011;7976;52.526;13.326;2023-08-06T05:21:56;10.00;;;4.90;;
15748;SDS011;7976;52.526;13.326;2023-08-06T05:24:23;10.60;;;4.93;;
15748;SDS011;7976;52.526;13.326;2023-08-06T05:26:50;11.20;;;5.35;;
15748;SDS011;7976;52.526;13.326;2023-08-06T05:29:16;10.70;;;5.45;;
15748;SDS011;7976;52.526;13.326;2023-08-06T05:31:43;9.75;;;4.82;;
15748;SDS011;7976;52.526;13.326;2023-08-06T05:34:12;11.30;;;5.30;;
15748;SDS011;7976;52.526;13.326;2023-08-06T05:36:38;11.15;;;5.88;;
15748;SDS011;7976;52.526;13.326;2023-08-06T05:39:05;13.57;;;5.60;;
15748;SDS011;7976;52.526;13.326;2023-08-06T05:41:32;11.80;;;5.70;;
15748;SDS011;7976;52.526;13.326;2023-08-06T05:43:59;11.95;;;5.53;;
15748;SDS011;7976;52.526;13.326;2023-08-06T05:46:26;13.20;;;6.05;;
15748;SDS011;7976;52.526;13.326;2023-08-06T05:48:53;11.68;;;5.47;;
15748;SDS011;7976;52.526;13.326;2023-08-06T05:51:21;10.60;;;5.13;;
15748;SDS011;7976;52.526;13.326;2023-08-06T05:53:48;10.95;;;5.45;;
15748;SDS011;7976;52.526;13.326;2023-08-06T05:56:15;12.65;;;5.43;;
15748;SDS011;7976;52.526;13.326;2023-08-06T05:58:42;13.10;;;6.05;;
15748;SDS011;7976;52.526;13.326;2023-08-06T06:01:09;10.25;;;5.10;;
15748;SDS011;7976;52.526;13.326;2023-08-06T06:03:36;12.35;;;6.28;;
15748;SDS011;7976;52.526;13.326;2023-08-06T06:06:03;11.88;;;5.60;;
15748;SDS011;7976;52.526;13.326;2023-08-06T06:08:31;11.52;;;5.38;;
15748;SDS011;7976;52.526;13.326;2023-08-06T06:10:59;13.02;;;5.03;;
15748;SDS011;7976;52.526;13.326;2023-08-06T06:13:26;12.02;;;6.15;;
15748;SDS011;7976;52.526;13.326;2023-08-06T06:15:55;11.48;;;5.45;;
15748;SDS011;7976;52.526;13.326;2023-08-06T06:18:22;13.70;;;6.30;;
15748;SDS011;7976;52.526;13.326;2023-08-06T06:20:49;11.77;;;5.72;;
15748;SDS011;7976;52.526;13.326;2023-08-06T06:23:16;12.77;;;6.10;;
15748;SDS011;7976;52.526;13.326;2023-08-06T06:25:46;12.10;;;5.80;;
15748;SDS011;7976;52.526;13.326;2023-08-06T06:28:16;13.82;;;5.55;;
15748;SDS011;7976;52.526;13.326;2023-08-06T06:30:43;11.75;;;5.35;;
15748;SDS011;7976;52.526;13.326;2023-08-06T06:33:10;10.15;;;5.03;;
15748;SDS011;7976;52.526;13.326;2023-08-06T06:35:37;10.80;;;4.63;;
15748;SDS011;7976;52.526;13.326;2023-08-06T06:38:04;11.05;;;5.63;;
15748;SDS011;7976;52.526;13.326;2023-08-06T06:40:31;10.27;;;5.18;;
15748;SDS011;7976;52.526;13.326;2023-08-06T06:42:59;12.02;;;5.40;;
15748;SDS011;7976;52.526;13.326;2023-08-06T06:45:26;11.38;;;5.43;;
15748;SDS011;7976;52.526;13.326;2023-08-06T06:47:53;13.05;;;5.20;;
15748;SDS011;7976;52.526;13.326;2023-08-06T06:50:20;9.88;;;5.13;;
15748;SDS011;7976;52.526;13.326;2023-08-06T06:52:46;10.27;;;5.13;;
15748;SDS011;7976;52.526;13.326;2023-08-06T06:55:13;10.50;;;5.40;;
15748;SDS011;7976;52.526;13.326;2023-08-06T06:57:40;11.10;;;5.25;;
15748;SDS011;7976;52.526;13.326;2023-08-06T07:00:09;11.32;;;4.88;;
15748;SDS011;7976;52.526;13.326;2023-08-06T07:02:37;10.80;;;5.00;;
15748;SDS011;7976;52.526;13.326;2023-08-06T07:05:04;10.85;;;4.95;;
15748;SDS011;7976;52.526;13.326;2023-08-06T07:07:32;10.93;;;5.18;;
15748;SDS011;7976;52.526;13.326;2023-08-06T07:10:00;10.68;;;4.88;;
15748;SDS011;7976;52.526;13.326;2023-08-06T07:12:27;10.77;;;5.03;;
15748;SDS011;7976;52.526;13.326;2023-08-06T07:14:54;9.73;;;4.55;;
15748;SDS011;7976;52.526;13.326;2023-08-06T07:17:22;10.27;;;5.00;;
15748;SDS011;7976;52.526;13.326;2023-08-06T07:19:49;10.48;;;5.10;;
15748;SDS011;7976;52.526;13.326;2023-08-06T07:22:16;10.52;;;4.88;;
15748;SDS011;7976;52.526;13.326;2023-08-06T07:24:43;9.88;;;4.55;;
15748;SDS011;7976;52.526;13.326;2023-08-06T07:27:10;10.13;;;4.80;;
15748;SDS011;7976;52.526;13.326;2023-08-06T07:29:36;9.48;;;4.45;;
15748;SDS011;7976;52.526;13.326;2023-08-06T07:32:04;10.90;;;4.85;;
15748;SDS011;7976;52.526;13.326;2023-08-06T07:34:33;11.35;;;4.85;;
15748;SDS011;7976;52.526;13.326;2023-08-06T07:37:01;10.13;;;4.80;;
15748;SDS011;7976;52.526;13.326;2023-08-06T07:39:27;10.48;;;4.85;;
15748;SDS011;7976;52.526;13.326;2023-08-06T07:41:55;10.35;;;5.82;;
15748;SDS011;7976;52.526;13.326;2023-08-06T07:44:21;9.98;;;5.07;;
15748;SDS011;7976;52.526;13.326;2023-08-06T07:46:48;12.38;;;5.78;;
15748;SDS011;7976;52.526;13.326;2023-08-06T07:49:15;11.43;;;6.05;;
15748;SDS011;7976;52.526;13.326;2023-08-06T07:51:44;12.85;;;6.20;;
15748;SDS011;7976;52.526;13.326;2023-08-06T07:54:10;12.40;;;6.63;;
15748;SDS011;7976;52.526;13.326;2023-08-06T07:56:37;12.23;;;6.60;;
15748;SDS011;7976;52.526;13.326;2023-08-06T07:59:05;13.02;;;7.15;;
15748;SDS011;7976;52.526;13.326;2023-08-06T08:01:31;13.68;;;7.53;;
15748;SDS011;7976;52.526;13.326;2023-08-06T08:03:58;13.38;;;6.80;;
15748;SDS011;7976;52.526;13.326;2023-08-06T08:06:25;12.32;;;7.07;;
15748;SDS011;7976;52.526;13.326;2023-08-06T08:08:53;12.85;;;6.93;;
15748;SDS011;7976;52.526;13.326;2023-08-06T08:11:20;12.88;;;7.10;;
15748;SDS011;7976;52.526;13.326;2023-08-06T08:13:47;13.77;;;7.38;;
15748;SDS011;7976;52.526;13.326;2023-08-06T08:16:14;13.48;;;7.85;;
15748;SDS011;7976;52.526;13.326;2023-08-06T08:18:41;13.80;;;7.15;;
15748;SDS011;7976;52.526;13.326;2023-08-06T08:21:08;13.18;;;7.65;;
15748;SDS011;7976;52.526;13.326;2023-08-06T08:23:34;13.23;;;7.25;;
15748;SDS011;7976;52.526;13.326;2023-08-06T08:26:02;14.50;;;7.93;;
15748;SDS011;7976;52.526;13.326;2023-08-06T08:28:30;14.45;;;8.00;;
15748;SDS011;7976;52.526;13.326;2023-08-06T08:30:57;14.75;;;7.03;;
15748;SDS011;7976;52.526;13.326;2023-08-06T08:33:23;13.27;;;7.15;;
15748;SDS011;7976;52.526;13.326;2023-08-06T08:35:50;13.45;;;8.07;;
15748;SDS011;7976;52.526;13.326;2023-08-06T08:38:17;13.10;;;7.32;;
15748;SDS011;7976;52.526;13.326;2023-08-06T08:40:45;13.88;;;7.80;;
15748;SDS011;7976;52.526;13.326;2023-08-06T08:43:19;13.73;;;7.82;;
15748;SDS011;7976;52.526;13.326;2023-08-06T08:45:49;14.80;;;8.00;;
15748;SDS011;7976;52.526;13.326;2023-08-06T08:48:17;15.55;;;8.15;;
15748;SDS011;7976;52.526;13.326;2023-08-06T08:50:46;13.85;;;8.07;;
15748;SDS011;7976;52.526;13.326;2023-08-06T08:53:15;13.35;;;7.95;;
15748;SDS011;7976;52.526;13.326;2023-08-06T08:55:43;13.50;;;7.40;;
15748;SDS011;7976;52.526;13.326;2023-08-06T08:58:13;15.68;;;7.88;;
15748;SDS011;7976;52.526;13.326;2023-08-06T09:00:41;13.65;;;7.47;;
15748;SDS011;7976;52.526;13.326;2023-08-06T09:03:11;13.57;;;7.15;;
15748;SDS011;7976;52.526;13.326;2023-08-06T09:05:38;12.20;;;6.85;;
15748;SDS011;7976;52.526;13.326;2023-08-06T09:08:11;12.98;;;6.97;;
15748;SDS011;7976;52.526;13.326;2023-08-06T09:10:43;13.25;;;7.40;;
15748;SDS011;7976;52.526;13.326;2023-08-06T09:13:12;12.68;;;7.10;;
15748;SDS011;7976;52.526;13.326;2023-08-06T09:15:39;14.65;;;7.68;;
15748;SDS011;7976;52.526;13.326;2023-08-06T09:18:10;14.43;;;7.70;;
15748;SDS011;7976;52.526;13.326;2023-08-06T09:20:38;15.68;;;8.30;;
15748;SDS011;7976;52.526;13.326;2023-08-06T09:23:06;16.20;;;8.30;;
15748;SDS011;7976;52.526;13.326;2023-08-06T09:25:36;13.93;;;7.95;;
15748;SDS011;7976;52.526;13.326;2023-08-06T09:28:05;14.55;;;8.13;;
15748;SDS011;7976;52.526;13.326;2023-08-06T09:30:33;17.08;;;8.70;;
15748;SDS011;7976;52.526;13.326;2023-08-06T09:33:02;14.85;;;8.32;;
15748;SDS011;7976;52.526;13.326;2023-08-06T09:35:31;15.23;;;7.85;;
15748;SDS011;7976;52.526;13.326;2023-08-06T09:38:04;14.82;;;8.38;;
15748;SDS011;7976;52.526;13.326;2023-08-06T09:40:33;15.35;;;7.72;;
15748;SDS011;7976;52.526;13.326;2023-08-06T09:43:01;15.00;;;8.85;;
15748;SDS011;7976;52.526;13.326;2023-08-06T09:45:28;14.95;;;7.88;;
15748;SDS011;7976;52.526;13.326;2023-08-06T09:47:58;14.07;;;7.75;;
15748;SDS011;7976;52.526;13.326;2023-08-06T09:50:28;17.65;;;7.88;;
15748;SDS011;7976;52.526;13.326;2023-08-06T09:52:58;15.20;;;7.60;;
15748;SDS011;7976;52.526;13.326;2023-08-06T09:55:25;13.27;;;7.18;;
15748;SDS011;7976;52.526;13.326;2023-08-06T09:57:53;14.88;;;7.57;;
15748;SDS011;7976;52.526;13.326;2023-08-06T10:00:21;18.20;;;9.02;;
15748;SDS011;7976;52.526;13.326;2023-08-06T10:02:48;14.20;;;8.13;;
15748;SDS011;7976;52.526;13.326;2023-08-06T10:05:19;13.18;;;7.80;;
15748;SDS011;7976;52.526;13.326;2023-08-06T10:07:49;15.68;;;8.95;;
15748;SDS011;7976;52.526;13.326;2023-08-06T10:10:17;14.13;;;7.93;;
15748;SDS011;7976;52.526;13.326;2023-08-06T10:12:45;15.07;;;8.52;;
15748;SDS011;7976;52.526;13.326;2023-08-06T10:15:16;15.75;;;9.10;;
15748;SDS011;7976;52.526;13.326;2023-08-06T10:17:48;16.63;;;9.18;;
15748;SDS011;7976;52.526;13.326;2023-08-06T10:20:18;15.45;;;8.73;;
15748;SDS011;7976;52.526;13.326;2023-08-06T10:22:54;16.73;;;10.02;;
15748;SDS011;7976;52.526;13.326;2023-08-06T10:25:30;16.65;;;9.65;;
15748;SDS011;7976;52.526;13.326;2023-08-06T10:27:58;17.77;;;10.15;;
15748;SDS011;7976;52.526;13.326;2023-08-06T10:30:26;17.85;;;9.85;;
15748;SDS011;7976;52.526;13.326;2023-08-06T10:32:57;17.27;;;9.82;;
15748;SDS011;7976;52.526;13.326;2023-08-06T10:35:31;16.50;;;9.75;;
15748;SDS011;7976;52.526;13.326;2023-08-06T10:38:05;18.45;;;10.32;;
15748;SDS011;7976;52.526;13.326;2023-08-06T10:40:35;16.65;;;9.40;;
15748;SDS011;7976;52.526;13.326;2023-08-06T10:43:02;17.55;;;10.20;;
15748;SDS011;7976;52.526;13.326;2023-08-06T10:45:33;16.85;;;9.18;;
15748;SDS011;7976;52.526;13.326;2023-08-06T10:48:02;18.63;;;9.52;;
15748;SDS011;7976;52.526;13.326;2023-08-06T10:50:30;16.42;;;9.10;;
15748;SDS011;7976;52.526;13.326;2023-08-06T10:52:58;17.63;;;9.65;;
15748;SDS011;7976;52.526;13.326;2023-08-06T10:55:33;17.15;;;8.90;;
15748;SDS011;7976;52.526;13.326;2023-08-06T10:58:03;16.25;;;8.57;;
15748;SDS011;7976;52.526;13.326;2023-08-06T11:00:30;14.75;;;8.60;;
15748;SDS011;7976;52.526;13.326;2023-08-06T11:02:57;16.25;;;8.80;;
15748;SDS011;7976;52.526;13.326;2023-08-06T11:05:24;15.65;;;8.52;;
15748;SDS011;7976;52.526;13.326;2023-08-06T11:07:52;15.98;;;8.95;;
15748;SDS011;7976;52.526;13.326;2023-08-06T11:10:21;17.33;;;9.23;;
15748;SDS011;7976;52.526;13.326;2023-08-06T11:12:48;15.30;;;8.52;;
15748;SDS011;7976;52.526;13.326;2023-08-06T11:15:16;19.80;;;10.02;;
15748;SDS011;7976;52.526;13.326;2023-08-06T11:17:43;19.27;;;9.73;;
15748;SDS011;7976;52.526;13.326;2023-08-06T11:20:14;18.50;;;9.00;;
15748;SDS011;7976;52.526;13.326;2023-08-06T11:22:41;18.55;;;10.00;;
15748;SDS011;7976;52.526;13.326;2023-08-06T11:25:08;15.90;;;8.90;;
15748;SDS011;7976;52.526;13.326;2023-08-06T11:27:37;16.05;;;9.10;;
15748;SDS011;7976;52.526;13.326;2023-08-06T11:30:04;16.00;;;7.97;;
15748;SDS011;7976;52.526;13.326;2023-08-06T11:32:32;12.82;;;7.00;;
15748;SDS011;7976;52.526;13.326;2023-08-06T11:35:08;11.18;;;5.93;;
15748;SDS011;7976;52.526;13.326;2023-08-06T11:37:37;12.75;;;6.40;;
15748;SDS011;7976;52.526;13.326;2023-08-06T11:40:11;13.60;;;7.53;;
15748;SDS011;7976;52.526;13.326;2023-08-06T11:42:42;13.40;;;7.30;;
15748;SDS011;7976;52.526;13.326;2023-08-06T11:45:09;14.68;;;6.95;;
15748;SDS011;7976;52.526;13.326;2023-08-06T11:47:37;12.73;;;6.30;;
15748;SDS011;7976;52.526;13.326;2023-08-06T11:50:06;13.07;;;6.63;;
15748;SDS011;7976;52.526;13.326;2023-08-06T11:52:34;13.55;;;7.63;;
15748;SDS011;7976;52.526;13.326;2023-08-06T11:55:06;13.48;;;6.88;;
15748;SDS011;7976;52.526;13.326;2023-08-06T11:57:35;14.98;;;7.70;;
15748;SDS011;7976;52.526;13.326;2023-08-06T12:00:07;13.75;;;7.63;;
15748;SDS011;7976;52.526;13.326;2023-08-06T12:02:43;16.77;;;8.48;;
15748;SDS011;7976;52.526;13.326;2023-08-06T12:05:12;16.42;;;8.85;;
15748;SDS011;7976;52.526;13.326;2023-08-06T12:07:41;15.57;;;8.30;;
15748;SDS011;7976;52.526;13.326;2023-08-06T12:10:10;15.18;;;8.38;;
15748;SDS011;7976;52.526;13.326;2023-08-06T12:12:39;14.88;;;8.57;;
15748;SDS011;7976;52.526;13.326;2023-08-06T12:15:08;16.45;;;8.82;;
15748;SDS011;7976;52.526;13.326;2023-08-06T12:17:36;15.98;;;8.60;;
15748;SDS011;7976;52.526;13.326;2023-08-06T12:20:05;16.70;;;8.77;;
15748;SDS011;7976;52.526;13.326;2023-08-06T12:22:34;18.05;;;9.38;;
15748;SDS011;7976;52.526;13.326;2023-08-06T12:25:04;17.65;;;9.10;;
15748;SDS011;7976;52.526;13.326;2023-08-06T12:27:34;19.08;;;9.48;;
15748;SDS011;7976;52.526;13.326;2023-08-06T12:30:01;16.77;;;9.25;;
15748;SDS011;7976;52.526;13.326;2023-08-06T12:32:31;15.73;;;8.77;;
15748;SDS011;7976;52.526;13.326;2023-08-06T12:34:59;15.13;;;8.55;;
15748;SDS011;7976;52.526;13.326;2023-08-06T12:37:26;15.00;;;8.18;;
15748;SDS011;7976;52.526;13.326;2023-08-06T12:39:54;14.48;;;8.13;;
15748;SDS011;7976;52.526;13.326;2023-08-06T12:42:21;15.73;;;8.63;;
15748;SDS011;7976;52.526;13.326;2023-08-06T12:44:49;18.20;;;8.82;;
15748;SDS011;7976;52.526;13.326;2023-08-06T12:47:16;17.52;;;8.77;;
15748;SDS011;7976;52.526;13.326;2023-08-06T12:49:46;16.75;;;8.80;;
15748;SDS011;7976;52.526;13.326;2023-08-06T12:52:14;15.02;;;8.55;;
15748;SDS011;7976;52.526;13.326;2023-08-06T12:54:41;15.63;;;8.80;;
15748;SDS011;7976;52.526;13.326;2023-08-06T12:57:10;16.58;;;8.45;;
15748;SDS011;7976;52.526;13.326;2023-08-06T12:59:38;18.90;;;10.05;;
15748;SDS011;7976;52.526;13.326;2023-08-06T13:02:05;19.80;;;9.65;;
15748;SDS011;7976;52.526;13.326;2023-08-06T13:04:32;17.35;;;8.73;;
15748;SDS011;7976;52.526;13.326;2023-08-06T13:07:00;18.38;;;8.65;;
15748;SDS011;7976;52.526;13.326;2023-08-06T13:09:29;16.92;;;8.63;;
15748;SDS011;7976;52.526;13.326;2023-08-06T13:11:56;16.55;;;8.80;;
15748;SDS011;7976;52.526;13.326;2023-08-06T13:14:24;14.38;;;8.13;;
15748;SDS011;7976;52.526;13.326;2023-08-06T13:16:53;15.95;;;9.10;;
15748;SDS011;7976;52.526;13.326;2023-08-06T13:19:20;16.38;;;9.05;;
15748;SDS011;7976;52.526;13.326;2023-08-06T13:22:01;18.90;;;9.68;;
15748;SDS011;7976;52.526;13.326;2023-08-06T13:24:31;16.90;;;9.65;;
15748;SDS011;7976;52.526;13.326;2023-08-06T13:26:58;17.50;;;9.13;;
15748;SDS011;7976;52.526;13.326;2023-08-06T13:29:26;18.63;;;9.32;;
15748;SDS011;7976;52.526;13.326;2023-08-06T13:31:53;17.08;;;9.35;;
15748;SDS011;7976;52.526;13.326;2023-08-06T13:34:20;19.23;;;9.55;;
15748;SDS011;7976;52.526;13.326;2023-08-06T13:36:48;16.05;;;9.23;;
15748;SDS011;7976;52.526;13.326;2023-08-06T13:39:16;19.38;;;9.57;;
15748;SDS011;7976;52.526;13.326;2023-08-06T13:41:44;16.30;;;8.65;;
15748;SDS011;7976;52.526;13.326;2023-08-06T13:44:11;15.63;;;8.38;;
15748;SDS011;7976;52.526;13.326;2023-08-06T13:46:40;17.25;;;9.30;;
15748;SDS011;7976;52.526;13.326;2023-08-06T13:49:08;17.63;;;9.05;;
15748;SDS011;7976;52.526;13.326;2023-08-06T13:51:35;17.20;;;8.73;;
15748;SDS011;7976;52.526;13.326;2023-08-06T13:54:02;16.77;;;9.10;;
15748;SDS011;7976;52.526;13.326;2023-08-06T13:56:31;18.80;;;9.50;;
15748;SDS011;7976;52.526;13.326;2023-08-06T13:59:02;16.00;;;8.68;;
15748;SDS011;7976;52.526;13.326;2023-08-06T14:01:30;16.90;;;8.70;;
15748;SDS011;7976;52.526;13.326;2023-08-06T14:03:57;18.90;;;8.38;;
15748;SDS011;7976;52.526;13.326;2023-08-06T14:06:24;15.95;;;8.27;;
15748;SDS011;7976;52.526;13.326;2023-08-06T14:08:51;15.85;;;8.45;;
15748;SDS011;7976;52.526;13.326;2023-08-06T14:11:18;15.48;;;8.20;;
15748;SDS011;7976;52.526;13.326;2023-08-06T14:13:46;15.88;;;8.05;;
15748;SDS011;7976;52.526;13.326;2023-08-06T14:16:13;17.20;;;8.65;;
15748;SDS011;7976;52.526;13.326;2023-08-06T14:18:40;15.57;;;8.00;;
15748;SDS011;7976;52.526;13.326;2023-08-06T14:21:06;15.93;;;8.55;;
15748;SDS011;7976;52.526;13.326;2023-08-06T14:23:33;13.98;;;7.28;;
15748;SDS011;7976;52.526;13.326;2023-08-06T14:26:00;16.05;;;7.80;;
15748;SDS011;7976;52.526;13.326;2023-08-06T14:28:27;14.50;;;7.38;;
15748;SDS011;7976;52.526;13.326;2023-08-06T14:30:55;15.95;;;7.15;;
15748;SDS011;7976;52.526;13.326;2023-08-06T14:33:22;14.00;;;7.38;;
15748;SDS011;7976;52.526;13.326;2023-08-06T14:35:49;16.27;;;7.65;;
15748;SDS011;7976;52.526;13.326;2023-08-06T14:38:16;18.05;;;7.93;;
15748;SDS011;7976;52.526;13.326;2023-08-06T14:40:43;17.33;;;7.72;;